Chandler, OK

5:34 PM CDT on October 19, 2017 (GMT -0500)
Chandler Municipal

Weather History for KCQB - November, 2012

Change the Weather History Date:

Saturday, November 10, 2012

  Actual Average (KCUH) Record (KCUH)
Temperature  
Mean Temperature 71 °F -  
Max Temperature 78 °F 61 °F 82 °F (1988)
Min Temperature 64 °F 38 °F 21 °F (1950)
Cooling Degree Days 6    
Growing Degree Days 21 (Base 50)    
Moisture  
Dew Point 61 °F    
Average Humidity 69    
Maximum Humidity 94    
Minimum Humidity 54    
Precipitation  
Precipitation 0.00 in - - ()
Sea Level Pressure  
Sea Level Pressure 29.83 in    
Wind  
Wind Speed 17 mph (South)    
Max Wind Speed 26 mph    
Max Gust Speed 37 mph    
Visibility 10 miles    
Events Rain    
Averages and records for this station are not official NWS values.
T = Trace of Precipitation, MM = Missing Value Source: NWS Daily Summary

Daily Weather History Graph

Daily Weather History Graph

Search for Another Location

Airport or City:

Trip Planner

Search our weather history database for the weather conditions in past years. The results will help you decide how hot, cold, wet, or windy it might be!

Date:

Astronomy

Nov. 10, 2012 Rise Set
Actual Time 6:58 AM CST 5:23 PM CST
Civil Twilight 6:31 AM CST 5:50 PM CST
Nautical Twilight 6:01 AM CST 6:20 PM CST
Astronomical Twilight 5:31 AM CST 6:51 PM CST
Moon 3:11 AM CST (11/10) 3:05 PM CST (11/10)
Length of Visible Light 11h 18m
Length of Day
10h 24m
Waning Crescent, 14% of the Moon is Illuminated
Nov 10
Waning Crescent
Nov 13
New
Nov 20
First Quarter
Nov 28
Full
Dec 6
Last Quarter

Hourly Weather History & Observations

Time (CST) Temp. Dew Point Humidity Pressure Visibility Wind Dir Wind Speed Gust Speed Precip Events Conditions
12:15 AM 71.6 °F 60.8 °F 69% 29.86 in 10.0 mi South 16.1 mph 21.9 mph N/A   Clear
12:35 AM 71.6 °F 60.8 °F 69% 29.87 in 10.0 mi South 15.0 mph 24.2 mph N/A   Clear
12:55 AM 71.6 °F 60.8 °F 69% 29.87 in 10.0 mi South 17.3 mph 21.9 mph N/A   Clear
1:15 AM 71.6 °F 60.8 °F 69% 29.88 in 10.0 mi SSW 15.0 mph 20.7 mph N/A   Clear
1:35 AM 71.6 °F 59.0 °F 64% 29.88 in 10.0 mi SSW 15.0 mph 25.3 mph N/A   Clear
1:55 AM 71.6 °F 59.0 °F 64% 29.88 in 10.0 mi South 16.1 mph 25.3 mph N/A   Clear
2:15 AM 69.8 °F 59.0 °F 68% 29.88 in 10.0 mi South 17.3 mph 25.3 mph N/A   Clear
2:35 AM 69.8 °F 59.0 °F 68% 29.88 in 10.0 mi South 15.0 mph 21.9 mph N/A   Clear
2:55 AM 69.8 °F 59.0 °F 68% 29.88 in 10.0 mi SSW 15.0 mph 21.9 mph N/A   Clear
3:15 AM 69.8 °F 59.0 °F 68% 29.89 in 10.0 mi South 16.1 mph 20.7 mph N/A   Clear
3:35 AM 69.8 °F 59.0 °F 68% 29.89 in 10.0 mi South 11.5 mph 19.6 mph N/A   Clear
3:55 AM 68.0 °F 59.0 °F 73% 29.89 in 10.0 mi South 11.5 mph 18.4 mph N/A   Clear
4:15 AM 68.0 °F 59.0 °F 73% 29.88 in 10.0 mi South 11.5 mph 17.3 mph N/A   Clear
4:35 AM 68.0 °F 59.0 °F 73% 29.89 in 10.0 mi South 10.4 mph 17.3 mph N/A   Clear
4:55 AM 68.0 °F 59.0 °F 73% 29.89 in 10.0 mi South 11.5 mph - N/A   Clear
5:15 AM 68.0 °F 59.0 °F 73% 29.90 in 10.0 mi South 11.5 mph - N/A   Clear
6:35 AM 66.2 °F 60.8 °F 83% 29.90 in 10.0 mi South 13.8 mph 21.9 mph N/A   Clear
6:55 AM 64.4 °F 60.8 °F 88% 29.90 in 10.0 mi South 15.0 mph 21.9 mph N/A   Clear
7:15 AM 64.4 °F 60.8 °F 88% 29.91 in 10.0 mi South 15.0 mph 21.9 mph N/A   Clear
7:35 AM 64.4 °F 62.6 °F 94% 29.91 in 10.0 mi South 13.8 mph 23.0 mph N/A   Clear
7:55 AM 64.4 °F 62.6 °F 94% 29.92 in 10.0 mi South 15.0 mph 19.6 mph N/A   Scattered Clouds
8:15 AM 66.2 °F 62.6 °F 88% 29.92 in 10.0 mi South 16.1 mph 21.9 mph N/A   Scattered Clouds
8:35 AM 66.2 °F 62.6 °F 88% 29.93 in 10.0 mi South 15.0 mph 27.6 mph N/A   Mostly Cloudy
8:55 AM 68.0 °F 62.6 °F 83% 29.93 in 10.0 mi South 18.4 mph 26.5 mph N/A   Overcast
9:35 AM 68.0 °F 62.6 °F 83% 29.93 in 10.0 mi South 16.1 mph 25.3 mph N/A   Overcast
9:55 AM 69.8 °F 62.6 °F 78% 29.92 in 10.0 mi South 12.7 mph 25.3 mph N/A   Overcast
10:15 AM 69.8 °F 62.6 °F 78% 29.91 in 10.0 mi South 25.3 mph 31.1 mph N/A   Overcast
10:35 AM 69.8 °F 62.6 °F 78% 29.91 in 10.0 mi South 18.4 mph 28.8 mph N/A   Overcast
10:55 AM 71.6 °F 62.6 °F 73% 29.90 in 10.0 mi South 24.2 mph 31.1 mph N/A   Overcast
11:15 AM 71.6 °F 62.6 °F 73% 29.88 in 10.0 mi South 18.4 mph 26.5 mph N/A Rain Rain
11:35 AM 71.6 °F 62.6 °F 73% 29.87 in 10.0 mi South 19.6 mph 25.3 mph N/A   Mostly Cloudy
11:55 AM 75.2 °F 62.6 °F 65% 29.85 in 10.0 mi South 20.7 mph 27.6 mph N/A   Mostly Cloudy
12:15 PM 77.0 °F 62.6 °F 61% 29.83 in 10.0 mi South 26.5 mph 33.4 mph N/A   Scattered Clouds
12:35 PM 75.2 °F 60.8 °F 61% 29.82 in 10.0 mi South 20.7 mph 31.1 mph N/A   Scattered Clouds
12:55 PM 73.4 °F 60.8 °F 65% 29.82 in 10.0 mi South 18.4 mph 28.8 mph N/A   Scattered Clouds
1:15 PM 77.0 °F 60.8 °F 57% 29.80 in 10.0 mi South 23.0 mph 33.4 mph N/A   Scattered Clouds
1:35 PM 77.0 °F 60.8 °F 57% 29.80 in 10.0 mi South 20.7 mph 33.4 mph N/A   Scattered Clouds
1:55 PM 78.8 °F 60.8 °F 54% 29.78 in 10.0 mi South 24.2 mph 32.2 mph N/A   Clear
2:15 PM 78.8 °F 60.8 °F 54% 29.78 in 10.0 mi South 24.2 mph 34.5 mph N/A   Scattered Clouds
2:35 PM 77.0 °F 60.8 °F 57% 29.78 in 10.0 mi South 24.2 mph 36.8 mph N/A   Scattered Clouds
2:55 PM 77.0 °F 60.8 °F 57% 29.77 in 10.0 mi South 20.7 mph 34.5 mph N/A   Clear
3:15 PM 78.8 °F 60.8 °F 54% 29.76 in 10.0 mi South 24.2 mph 32.2 mph N/A   Scattered Clouds
3:35 PM 78.8 °F 60.8 °F 54% 29.75 in 10.0 mi South 23.0 mph 32.2 mph N/A   Clear
3:55 PM 77.0 °F 60.8 °F 57% 29.75 in 10.0 mi South 18.4 mph 34.5 mph N/A   Clear
4:15 PM 77.0 °F 60.8 °F 57% 29.75 in 10.0 mi South 24.2 mph 36.8 mph N/A   Clear
4:35 PM 77.0 °F 60.8 °F 57% 29.75 in 10.0 mi South 13.8 mph 23.0 mph N/A   Clear
4:55 PM 77.0 °F 60.8 °F 57% 29.75 in 10.0 mi South 17.3 mph 24.2 mph N/A   Clear
5:15 PM 75.2 °F 60.8 °F 61% 29.75 in 10.0 mi South 17.3 mph 23.0 mph N/A   Clear
5:35 PM 73.4 °F 60.8 °F 65% 29.75 in 10.0 mi South 18.4 mph 25.3 mph N/A   Clear
5:55 PM 73.4 °F 60.8 °F 65% 29.76 in 10.0 mi South 19.6 mph 26.5 mph N/A   Clear
6:15 PM 73.4 °F 60.8 °F 65% 29.77 in 10.0 mi South 13.8 mph 24.2 mph N/A   Clear
6:35 PM 73.4 °F 60.8 °F 65% 29.77 in 10.0 mi South 17.3 mph 29.9 mph N/A   Clear
6:55 PM 73.4 °F 60.8 °F 65% 29.77 in 10.0 mi South 17.3 mph 26.5 mph N/A   Clear
7:15 PM 73.4 °F 60.8 °F 65% 29.78 in 10.0 mi South 17.3 mph 24.2 mph N/A   Clear
7:35 PM 73.4 °F 60.8 °F 65% 29.78 in 10.0 mi South 17.3 mph 28.8 mph N/A   Clear
7:55 PM 73.4 °F 60.8 °F 65% 29.78 in 10.0 mi SSE 17.3 mph 28.8 mph N/A   Scattered Clouds
8:15 PM 73.4 °F 60.8 °F 65% 29.77 in 10.0 mi South 19.6 mph 29.9 mph N/A   Mostly Cloudy
8:35 PM 73.4 °F 60.8 °F 65% 29.77 in 10.0 mi South 18.4 mph 28.8 mph N/A   Mostly Cloudy
8:55 PM 73.4 °F 60.8 °F 65% 29.76 in 10.0 mi SSE 20.7 mph 31.1 mph N/A   Mostly Cloudy
9:15 PM 73.4 °F 60.8 °F 65% 29.77 in 10.0 mi South 16.1 mph 28.8 mph N/A   Overcast
9:35 PM 73.4 °F 60.8 °F 65% 29.78 in 10.0 mi South 15.0 mph 23.0 mph N/A   Overcast
10:15 PM 71.6 °F 60.8 °F 69% 29.76 in 10.0 mi South 18.4 mph 31.1 mph N/A   Overcast
10:35 PM 71.6 °F 60.8 °F 69% 29.75 in 10.0 mi SSE 23.0 mph 33.4 mph N/A   Mostly Cloudy
10:55 PM 71.6 °F 60.8 °F 69% 29.74 in 10.0 mi South 20.7 mph 32.2 mph N/A   Mostly Cloudy
11:15 PM 71.6 °F 60.8 °F 69% 29.73 in 10.0 mi South 24.2 mph 31.1 mph N/A   Scattered Clouds
11:35 PM 71.6 °F 60.8 °F 69% 29.73 in 10.0 mi South 17.3 mph 29.9 mph N/A   Clear
11:55 PM 71.6 °F 60.8 °F 69% 29.73 in 10.0 mi South 13.8 mph 29.9 mph N/A   Clear